Latest Weather Observations for Lucas Heights

IDN60801

Issued at 8:05 pm EDT Sunday 26 October 2014 (issued every 30 minutes, with the page automatically refreshed every 10 minutes)

About weather observations | Map of weather stations | Latest weather observations for NSW | Other Formats
Station Details ID: 066023 Name: LUCAS HEIGHTS AWS Lat: -34.05 Lon: 150.98 Height: 140.0 m
Data from the previous 72 hours. | See also: Recent months for locations in New South Wales
Date/Time
EDT
Temp
°C
App
Temp
°C
Dew
Point
Rel
Hum
%
Delta-T
°C
Wind Press
QNH
hPa
Press
MSL
hPa
Rain
since 9 am
mm
Dir
 
Spd
km/h
Gust
km/h
Spd
kts
Gust
kts
26/07:45pm 18.5 16.2 15.8 84 1.6 SE 22 37 12 20 1012.0 - 0.0
26/07:30pm 18.5 15.5 15.8 84 1.6 SSE 26 39 14 21 1011.5 - 0.0
26/07:15pm 18.6 15.2 15.7 83 1.7 SSE 28 41 15 22 1011.1 - 0.0
26/07:00pm 18.7 13.9 15.7 83 1.8 SSE 35 54 19 29 1010.7 - 0.0
26/06:45pm 18.9 13.0 15.8 82 1.8 SSE 41 56 22 30 1010.2 - 0.0
26/06:30pm 19.2 14.1 15.9 81 2.0 SSE 37 52 20 28 1009.9 - 0.0
26/06:15pm 19.5 14.1 16.0 80 2.1 SSE 39 52 21 28 1009.7 - 0.0
26/06:00pm 19.7 13.6 16.1 80 2.2 SSE 43 56 23 30 1009.5 - 0.0
26/05:45pm 19.7 13.5 15.9 79 2.3 SSE 43 57 23 31 1009.2 - 0.0
26/05:30pm 20.4 15.8 16.1 76 2.6 SSE 35 52 19 28 1009.1 - 0.0
26/05:15pm 20.8 15.0 16.1 74 2.8 SSE 41 57 22 31 1008.8 - 0.0
26/05:00pm 20.8 14.9 15.8 73 3.0 SSE 41 56 22 30 1008.8 - 0.0
26/04:45pm 21.2 15.3 15.8 71 3.2 SSE 41 54 22 29 1008.6 - 0.0
26/04:30pm 22.0 17.0 16.1 69 3.6 SSE 37 48 20 26 1008.4 - 0.0
26/04:15pm 22.4 17.8 16.2 68 3.8 SSE 35 50 19 27 1008.3 - 0.0
26/04:00pm 22.9 18.8 16.5 67 3.9 SSE 33 44 18 24 1008.1 - 0.0
26/03:45pm 22.7 18.2 16.3 67 3.9 SSE 35 44 19 24 1008.1 - 0.0
26/03:30pm 23.0 19.1 16.4 66 4.0 SE 32 46 17 25 1008.1 - 0.0
26/03:15pm 23.8 20.7 16.6 64 4.4 SE 28 41 15 22 1008.3 - 0.0
26/03:00pm 24.8 23.1 17.3 63 4.7 SE 22 30 12 16 1008.2 - 0.0
26/02:45pm 25.1 23.9 17.6 63 4.7 SE 20 30 11 16 1008.1 - 0.0
26/02:30pm 25.0 23.4 17.5 63 4.7 SE 22 30 12 16 1008.4 - 0.0
26/02:15pm 25.7 24.6 17.8 61 5.0 SE 20 26 11 14 1008.5 - 0.0
26/02:00pm 27.1 26.1 17.9 57 5.8 SE 20 30 11 16 1008.4 - 0.0
26/01:45pm 29.8 29.7 17.9 48 7.6 ESE 15 24 8 13 1008.3 - 0.0
26/01:30pm 32.1 30.9 14.0 33 11.0 WSW 13 26 7 14 1008.3 - 0.0
26/01:15pm 32.3 30.0 13.0 31 11.6 W 17 32 9 17 1008.3 - 0.0
26/01:00pm 31.5 31.2 14.4 35 10.5 W 9 19 5 10 1008.5 - 0.0
26/12:45pm 30.9 30.8 15.0 38 9.8 W 9 20 5 11 1008.7 - 0.0
26/12:30pm 30.2 30.5 16.0 42 8.9 W 9 19 5 10 1008.9 - 0.0
26/12:15pm 29.7 29.2 15.9 43 8.6 W 13 22 7 12 1009.0 - 0.0
26/12:00pm 29.0 29.6 16.9 48 7.6 NW 9 17 5 9 1009.0 - 0.0
26/11:45am 28.3 29.4 17.0 50 7.1 NW 7 13 4 7 1009.1 - 0.0
26/11:30am 27.8 28.9 17.1 52 6.7 NW 7 13 4 7 1009.3 - 0.0
26/11:15am 26.9 27.9 17.8 57 5.8 NW 9 15 5 8 1009.5 - 0.0
26/11:00am 26.2 27.4 18.3 61 5.0 WNW 9 15 5 8 1009.6 - 0.0
26/10:45am 25.4 26.5 18.1 64 4.6 NW 9 17 5 9 1009.8 - 0.0
26/10:30am 24.8 26.2 18.7 69 3.9 NW 9 15 5 8 1010.0 - 0.0
26/10:15am 23.9 25.2 18.5 72 3.4 NW 9 13 5 7 1010.1 - 0.0
26/10:00am 22.9 24.0 18.1 74 3.0 NW 9 13 5 7 1010.3 - 0.0
26/09:45am 22.4 24.1 18.4 78 2.5 WNW 7 13 4 7 1010.3 - 0.0
26/09:30am 21.5 22.6 18.1 81 2.1 WNW 9 15 5 8 1010.4 - 0.0
26/09:15am 20.7 21.8 18.1 85 1.6 WNW 9 15 5 8 1010.6 - 0.0
26/09:00am 19.9 21.0 17.9 88 1.2 NW 9 15 5 8 1010.6 - 0.0
26/08:45am 19.2 20.5 17.5 90 1.0 WNW 7 13 4 7 1010.8 - 0.0
26/08:30am 18.7 19.8 17.1 90 1.0 WNW 7 15 4 8 1011.0 - 0.0
26/08:15am 18.4 18.7 16.9 91 0.9 WNW 11 17 6 9 1011.2 - 0.0
26/08:00am 18.4 19.0 16.9 91 0.9 WNW 9 17 5 9 1011.1 - 0.0
26/07:45am 18.2 18.8 16.7 91 0.9 W 9 15 5 8 1011.1 - 0.0
26/07:30am 18.1 17.9 16.6 91 0.9 WNW 13 15 7 8 1011.0 - 0.0
26/07:15am 17.9 18.7 16.4 91 0.9 W 7 13 4 7 1010.9 - 0.0
26/07:00am 17.8 18.6 16.3 91 0.9 W 7 11 4 6 1011.0 - 0.0
26/06:45am 17.6 18.0 16.2 91 0.8 W 9 13 5 7 1010.9 - 0.0
26/06:30am 17.5 17.4 16.0 91 0.9 WNW 11 15 6 8 1010.8 - 0.0
26/06:15am 17.5 17.4 16.0 91 0.9 WNW 11 15 6 8 1010.8 - 0.0
26/06:00am 17.6 17.5 16.0 90 1.0 WNW 11 13 6 7 1010.9 - 0.0
26/05:45am 17.6 17.5 16.0 90 1.0 NW 11 15 6 8 1010.9 - 0.0
26/05:30am 17.4 16.9 15.8 90 0.9 WNW 13 19 7 10 1011.0 - 0.0
26/05:15am 17.4 16.9 15.8 90 0.9 WNW 13 17 7 9 1011.0 - 0.0
26/05:00am 17.4 16.9 15.8 90 0.9 WNW 13 17 7 9 1011.1 - 0.0
26/04:45am 17.1 17.2 15.5 90 0.9 W 9 13 5 7 1011.0 - 0.0
26/04:30am 17.2 17.7 15.5 90 1.0 W 7 9 4 5 1011.1 - 0.0
26/04:15am 17.3 17.4 15.6 90 1.0 W 9 13 5 7 1011.5 - 0.0
26/04:00am 17.5 17.4 15.9 90 0.9 W 11 15 6 8 1011.7 - 0.0
26/03:45am 17.4 16.9 15.9 91 0.9 W 13 15 7 8 1012.1 - 0.0
26/03:30am 17.4 16.9 15.8 90 0.9 W 13 19 7 10 1012.4 - 0.0
26/03:15am 17.1 16.5 15.6 91 0.9 W 13 19 7 10 1012.5 - 0.0
26/03:00am 17.2 16.2 15.7 91 0.9 W 15 22 8 12 1012.5 - 0.0
26/02:45am 17.0 15.5 15.4 90 0.9 W 17 22 9 12 1012.7 - 0.0
26/02:30am 17.0 15.6 15.5 91 0.9 W 17 22 9 12 1012.9 - 0.0
26/02:15am 17.2 16.2 15.6 90 0.9 W 15 22 8 12 1013.3 - 0.0
26/02:00am 17.1 16.4 15.4 90 1.0 W 13 19 7 10 1013.3 - 0.0
26/01:45am 17.3 17.5 15.7 90 0.9 W 9 13 5 7 1013.3 - 0.0
26/01:30am 17.4 17.6 15.7 90 1.0 NW 9 15 5 8 1013.7 - 0.0
26/01:15am 17.4 17.1 15.5 89 1.1 NW 11 19 6 10 1014.1 - 0.0
26/01:00am 17.6 18.2 15.7 89 1.1 NNE 7 11 4 6 1014.3 - 0.0
26/12:45am 17.8 17.3 15.9 89 1.1 N 13 20 7 11 1014.9 - 0.0
26/12:30am 17.9 17.4 16.0 89 1.1 NE 13 19 7 10 1015.3 - 0.0
26/12:15am 18.1 18.4 16.1 88 1.2 NNE 9 15 5 8 1015.9 - 0.0
26/12:00am 18.2 19.1 16.2 88 1.2 SSW 6 13 3 7 1016.6 - 0.0
 
Date/Time
EDT
Temp
°C
App
Temp
°C
Dew
Point
Rel
Hum
%
Delta-T
°C
Wind Press
QNH
hPa
Press
MSL
hPa
Rain
since 9 am
mm
Dir
 
Spd
km/h
Gust
km/h
Spd
kts
Gust
kts
25/11:45pm 18.4 17.7 16.4 88 1.2 WSW 15 26 8 14 1017.3 - 0.0
25/11:30pm 18.4 17.7 16.4 88 1.2 WSW 15 35 8 19 1017.0 - 0.0
25/11:15pm 18.4 18.1 16.5 89 1.1 S 13 24 7 13 1017.0 - 0.0
25/11:00pm 18.5 16.6 16.6 89 1.1 SW 22 33 12 18 1017.6 - 0.0
25/10:45pm 18.3 18.0 16.4 89 1.1 SSW 13 24 7 13 1016.3 - 0.0
25/10:30pm 18.4 19.2 16.4 88 1.2 SSE 7 13 4 7 1016.0 - 0.0
25/10:15pm 18.4 19.8 16.4 88 1.2 SSE 4 6 2 3 1016.4 - 0.0
25/10:00pm 18.4 19.4 16.4 88 1.2 ESE 6 9 3 5 1016.6 - 0.0
25/09:45pm 18.4 19.4 16.4 88 1.2 SSE 6 9 3 5 1016.9 - 0.0
25/09:30pm 18.4 19.2 16.4 88 1.2 S 7 13 4 7 1017.0 - 0.0
25/09:15pm 18.3 18.0 16.4 89 1.1 SE 13 19 7 10 1016.5 - 0.0
25/09:00pm 18.2 17.8 16.2 88 1.2 SE 13 24 7 13 1016.3 - 0.0
25/08:45pm 18.4 18.0 16.3 87 1.3 SSE 13 26 7 14 1016.3 - 0.0
25/08:30pm 18.4 17.3 16.3 87 1.3 SE 17 33 9 18 1015.7 - 0.0
25/08:15pm 18.4 16.3 16.3 87 1.3 SE 22 33 12 18 1015.2 - 0.0
25/08:00pm 18.5 15.3 16.3 87 1.3 SE 28 37 15 20 1015.0 - 0.0
25/07:45pm 18.7 17.1 16.4 86 1.4 SE 20 35 11 19 1015.5 - 0.0
25/07:30pm 18.8 18.9 16.4 86 1.4 S 11 19 6 10 1015.8 - 0.0
25/07:15pm 18.8 17.7 16.4 86 1.4 S 17 33 9 18 1015.2 - 0.0
25/07:00pm 18.8 15.3 16.4 86 1.4 SSE 30 44 16 24 1014.7 - 0.0
25/06:45pm 19.0 15.1 16.5 85 1.5 SSE 32 46 17 25 1014.2 - 0.0
25/06:30pm 19.2 15.2 16.7 85 1.5 SSE 33 44 18 24 1013.9 - 0.0
25/06:15pm 19.2 15.4 16.6 85 1.6 SSE 32 44 17 24 1013.8 - 0.0
25/06:00pm 19.6 16.6 16.8 84 1.7 SSE 28 43 15 23 1013.8 - 0.0
25/05:45pm 20.0 17.5 17.0 83 1.8 SSE 26 39 14 21 1013.8 - 0.0
25/05:30pm 20.1 16.8 16.9 82 2.0 SSE 30 41 16 22 1013.7 - 0.0
25/05:15pm 20.2 15.8 16.7 80 2.1 SSE 35 50 19 27 1013.6 - 0.0
25/05:00pm 21.2 17.9 17.0 77 2.6 SSE 30 46 16 25 1013.5 - 0.0
25/04:45pm 22.1 20.1 17.3 74 3.0 SSE 24 33 13 18 1013.4 - 0.0
25/04:30pm 22.3 20.4 17.6 75 2.9 SSE 24 33 13 18 1013.3 - 0.0
25/04:15pm 21.5 18.4 17.4 77 2.5 SSE 30 37 16 20 1013.2 - 0.0
25/04:00pm 20.8 17.0 16.8 78 2.4 SSE 32 41 17 22 1013.4 - 0.0
25/03:45pm 21.4 18.7 16.5 73 3.0 SSE 26 33 14 18 1013.6 - 0.0
25/03:30pm 23.1 21.1 17.3 70 3.6 SSE 24 33 13 18 1013.6 - 0.0
25/03:15pm 24.0 22.9 17.7 68 4.0 SSE 20 30 11 16 1013.6 - 0.0
25/03:00pm 24.7 23.9 18.0 66 4.2 SE 19 28 10 15 1013.7 - 0.0
25/02:45pm 24.9 23.4 17.8 64 4.5 SSE 22 32 12 17 1014.0 - 0.0
25/02:30pm 25.2 24.4 17.9 64 4.6 SE 19 28 10 15 1014.1 - 0.0
25/02:15pm 25.7 24.7 18.0 62 4.9 SE 20 26 11 14 1014.3 - 0.0
25/02:00pm 26.0 25.6 18.1 61 5.0 SE 17 26 9 14 1014.4 - 0.0
25/01:45pm 26.6 26.6 18.0 59 5.5 SE 15 22 8 12 1014.5 - 0.0
25/01:30pm 26.8 26.7 17.9 58 5.7 SE 15 22 8 12 1014.4 - 0.0
25/01:15pm 26.9 26.9 18.0 58 5.7 ESE 15 22 8 12 1014.5 - 0.0
25/01:00pm 27.6 27.1 17.8 55 6.2 ESE 17 22 9 12 1014.5 - 0.0
25/12:45pm 28.7 28.7 18.2 53 6.7 E 15 22 8 12 1014.5 - 0.0
25/12:30pm 29.4 29.4 18.2 51 7.2 ENE 15 22 8 12 1014.6 - 0.0
25/12:15pm 29.5 30.6 17.9 49 7.4 ENE 9 17 5 9 1014.8 - 0.0
25/12:00pm 28.9 29.7 17.4 49 7.3 NE 9 15 5 8 1015.1 - 0.0
25/11:45am 28.9 30.2 17.1 49 7.5 NE 6 13 3 7 1015.2 - 0.0
25/11:30am 28.5 29.8 17.0 49 7.2 NE 6 13 3 7 1015.2 - 0.0
25/11:15am 28.3 29.4 17.0 50 7.1 ENE 7 13 4 7 1015.3 - 0.0
25/11:00am 27.3 28.6 17.0 53 6.5 NNE 6 11 3 6 1015.3 - 0.0
25/10:45am 26.9 27.7 16.4 52 6.5 NNE 7 15 4 8 1015.3 - 0.0
25/10:30am 27.3 28.4 16.7 52 6.6 E 6 11 3 6 1015.3 - 0.0
25/10:15am 26.8 27.8 16.4 53 6.5 E 6 11 3 6 1015.4 - 0.0
25/10:00am 26.2 27.6 16.3 54 6.1 ESE 4 11 2 6 1015.6 - 0.0
25/09:45am 24.8 25.5 15.6 56 5.6 W 6 9 3 5 1015.6 - 0.0
25/09:30am 23.8 23.8 15.3 59 5.1 W 9 13 5 7 1015.6 - 0.0
25/09:15am 23.1 23.3 15.8 63 4.4 W 9 15 5 8 1015.6 - 0.0
25/09:00am 22.6 22.4 15.8 65 4.1 W 11 15 6 8 1015.4 - 0.0
25/08:45am 24.0 24.7 15.6 59 5.1 WSW 6 13 3 7 1015.2 - 0.0
25/08:30am 22.9 24.1 15.8 64 4.3 WSW 4 7 2 4 1015.1 - 0.0
25/08:15am 21.9 23.9 17.9 78 2.5 SW 4 6 2 3 1015.2 - 0.0
25/08:00am 20.6 22.1 18.9 90 1.1 SW 9 13 5 7 1015.2 - 0.0
25/07:45am 18.6 19.4 17.4 93 0.7 SSW 9 13 5 7 1015.0 - 0.0
25/07:30am 17.6 18.0 16.4 93 0.7 SSW 9 13 5 7 1014.8 - 0.0
25/07:15am 16.9 17.1 15.7 93 0.7 S 9 13 5 7 1014.8 - 0.0
25/07:00am 16.8 17.3 15.6 93 0.7 SW 7 13 4 7 1014.6 - 0.0
25/06:45am 16.4 15.6 15.2 93 0.7 SW 13 17 7 9 1014.3 - 0.0
25/06:30am 16.5 15.7 15.2 92 0.8 SW 13 15 7 8 1014.0 - 0.0
25/06:15am 16.6 15.9 15.3 92 0.8 SW 13 17 7 9 1013.6 - 0.0
25/06:00am 17.0 17.2 15.7 92 0.8 SSW 9 13 5 7 1013.3 - 0.0
25/05:45am 17.4 17.7 16.1 92 0.8 S 9 13 5 7 1013.0 - 0.0
25/05:30am 17.5 17.9 16.2 92 0.8 SSE 9 15 5 8 1012.9 - 0.0
25/05:15am 17.7 18.5 16.4 92 0.8 S 7 11 4 6 1012.8 - 0.0
25/05:00am 17.8 18.3 16.5 92 0.8 SSE 9 13 5 7 1012.7 - 0.0
25/04:45am 17.9 18.4 16.6 92 0.8 SSE 9 13 5 7 1012.6 - 0.0
25/04:30am 17.9 18.4 16.6 92 0.8 SE 9 13 5 7 1012.6 - 0.0
25/04:15am 17.9 18.0 16.6 92 0.8 SE 11 15 6 8 1012.7 - 0.0
25/04:00am 17.9 17.6 16.5 91 0.8 SE 13 17 7 9 1012.6 - 0.0
25/03:45am 17.9 17.6 16.5 91 0.8 SE 13 19 7 10 1012.6 - 0.0
25/03:30am 17.8 17.5 16.4 91 0.8 SSE 13 15 7 8 1012.5 - 0.0
25/03:15am 17.9 17.6 16.4 91 0.9 SSE 13 17 7 9 1012.5 - 0.0
25/03:00am 17.9 17.2 16.4 91 0.9 SSE 15 17 8 9 1012.4 - 0.0
25/02:45am 17.9 17.2 16.4 91 0.9 SSE 15 17 8 9 1012.3 - 0.0
25/02:30am 17.9 17.5 16.3 90 1.0 SSE 13 17 7 9 1012.4 - 0.0
25/02:15am 18.0 17.6 16.3 90 1.0 SSE 13 17 7 9 1012.4 - 0.0
25/02:00am 18.0 17.3 16.3 90 1.0 SSE 15 22 8 12 1012.6 - 0.0
25/01:45am 18.1 17.0 16.3 89 1.1 SSE 17 20 9 11 1012.5 - 0.0
25/01:30am 18.1 16.9 16.2 89 1.1 SSE 17 22 9 12 1012.7 - 0.0
25/01:15am 18.2 16.6 15.9 86 1.4 SSE 19 22 10 12 1012.7 - 0.0
25/01:00am 18.7 18.0 16.3 86 1.4 SSE 15 20 8 11 1012.9 - 0.0
25/12:45am 19.1 17.7 16.5 85 1.6 SSE 19 22 10 12 1012.9 - 0.0
25/12:30am 19.4 18.1 16.7 84 1.6 SSE 19 22 10 12 1012.9 - 0.0
25/12:15am 19.6 19.0 16.7 83 1.8 SSE 15 20 8 11 1013.0 - 0.0
25/12:00am 19.6 18.6 16.6 83 1.8 S 17 22 9 12 1013.0 - 0.0
 
Date/Time
EDT
Temp
°C
App
Temp
°C
Dew
Point
Rel
Hum
%
Delta-T
°C
Wind Press
QNH
hPa
Press
MSL
hPa
Rain
since 9 am
mm
Dir
 
Spd
km/h
Gust
km/h
Spd
kts
Gust
kts
24/11:45pm 19.7 19.1 16.7 83 1.8 S 15 22 8 12 1013.0 - 0.0
24/11:30pm 19.7 19.1 16.6 82 1.9 SSE 15 24 8 13 1013.2 - 0.0
24/11:15pm 19.8 18.2 16.5 81 2.0 SSE 20 30 11 16 1013.0 - 0.0
24/11:00pm 20.2 21.1 16.7 80 2.1 ENE 7 13 4 7 1012.6 - 0.0
24/10:45pm 20.4 20.6 16.8 80 2.2 ENE 11 17 6 9 1012.6 - 0.0
24/10:30pm 20.5 20.4 16.9 80 2.2 NE 13 19 7 10 1012.8 - 0.0
24/10:15pm 20.7 20.6 17.0 79 2.3 ENE 13 15 7 8 1013.1 - 0.0
24/10:00pm 20.8 21.5 17.0 79 2.3 NNE 9 15 5 8 1013.7 - 0.0
24/09:45pm 20.8 20.7 17.0 79 2.3 NNE 13 19 7 10 1013.8 - 0.0
24/09:30pm 21.0 20.6 17.1 78 2.4 NE 15 19 8 10 1013.4 - 0.0
24/09:15pm 21.0 21.7 17.1 78 2.4 NE 9 17 5 9 1013.6 - 0.0
24/09:00pm 20.8 20.7 17.0 79 2.3 NE 13 19 7 10 1013.2 - 0.0
24/08:45pm 20.7 20.6 16.9 79 2.3 NE 13 17 7 9 1013.1 - 0.0
24/08:30pm 20.8 21.1 16.9 78 2.4 ENE 11 15 6 8 1013.1 - 0.0
24/08:15pm 20.9 21.2 16.9 78 2.4 ENE 11 15 6 8 1013.0 - 0.0
24/08:00pm 21.1 20.9 16.8 76 2.6 ENE 13 15 7 8 1012.9 - 0.0
24/07:45pm 21.4 21.2 16.8 75 2.8 ENE 13 17 7 9 1012.8 - 0.0
24/07:30pm 21.7 21.5 16.8 73 3.0 ENE 13 19 7 10 1012.8 - 0.0
24/07:15pm 22.1 21.6 16.9 72 3.2 ENE 15 19 8 10 1012.7 - 0.0
24/07:00pm 22.5 22.0 17.0 71 3.4 ENE 15 20 8 11 1012.6 - 0.0
24/06:45pm 22.9 22.4 17.0 69 3.6 ENE 15 19 8 10 1012.5 - 0.0
24/06:30pm 23.7 23.4 17.3 67 4.0 ENE 15 22 8 12 1012.5 - 0.0
24/06:15pm 24.1 23.5 17.5 66 4.1 ENE 17 22 9 12 1012.5 - 0.0
24/06:00pm 24.2 23.7 17.7 67 4.1 ENE 17 22 9 12 1012.5 - 0.0
24/05:45pm 24.2 23.7 17.7 67 4.1 ENE 17 22 9 12 1012.6 - 0.0
24/05:30pm 24.4 23.5 17.7 66 4.2 ENE 19 24 10 13 1012.7 - 0.0
24/05:15pm 24.6 23.8 18.0 66 4.2 ENE 19 30 10 16 1012.9 - 0.0
24/05:00pm 24.2 23.1 17.7 67 4.1 ENE 20 26 11 14 1013.1 - 0.0
24/04:45pm 24.7 23.5 17.6 64 4.5 ENE 20 28 11 15 1013.1 - 0.0
24/04:30pm 25.5 24.4 17.7 62 4.9 ENE 20 30 11 16 1013.2 - 0.0
24/04:15pm 26.4 25.7 18.3 61 5.2 NE 19 28 10 15 1013.4 - 0.0
24/04:00pm 26.4 25.6 18.5 62 5.1 ENE 20 30 11 16 1013.5 - 0.0
24/03:45pm 26.3 25.1 18.4 61 5.0 ENE 22 30 12 16 1013.8 - 0.0
24/03:30pm 26.5 25.7 18.5 61 5.1 ENE 20 30 11 16 1014.0 - 0.0
24/03:15pm 26.8 26.1 18.6 60 5.3 NE 20 30 11 16 1014.3 - 0.0
24/03:00pm 26.5 25.9 18.8 62 5.0 ENE 20 30 11 16 1014.5 - 0.0
24/02:45pm 26.3 26.2 18.8 63 4.8 ENE 17 24 9 13 1014.9 - 0.0
24/02:30pm 26.2 26.1 18.8 63 4.8 ENE 17 28 9 15 1015.2 - 0.0
24/02:15pm 26.1 25.5 18.5 63 4.9 ENE 19 28 10 15 1015.6 - 0.0
24/02:00pm 26.7 25.8 18.2 59 5.4 ENE 20 28 11 15 1015.7 - 0.0
24/01:45pm 27.1 25.9 17.0 54 6.3 NE 19 32 10 17 1016.0 - 0.0
24/01:30pm 27.1 25.3 15.9 50 6.9 NNE 20 33 11 18 1016.3 - 0.0
24/01:15pm 26.5 25.8 16.3 53 6.3 N 15 32 8 17 1016.6 - 0.0
24/01:00pm 26.1 25.1 16.5 55 6.0 NNE 17 30 9 16 1016.9 - 0.0
24/12:45pm 25.4 24.7 16.4 57 5.6 N 15 24 8 13 1017.2 - 0.0
24/12:30pm 25.0 24.8 16.7 60 5.1 N 13 22 7 12 1017.5 - 0.0
24/12:15pm 24.4 24.3 16.9 63 4.7 N 13 22 7 12 1017.9 - 0.0
24/12:00pm 23.8 23.8 17.2 66 4.1 N 13 22 7 12 1018.3 - 0.0
24/11:45am 23.1 23.5 18.1 73 3.1 NNW 13 22 7 12 1018.7 - 0.0
24/11:30am 21.7 21.2 17.7 78 2.5 N 17 26 9 14 1019.0 - 0.0
24/11:15am 20.8 20.6 17.7 82 1.9 N 15 26 8 14 1019.5 - 0.0
24/11:00am 19.8 19.8 17.1 84 1.7 NNW 13 19 7 10 1019.7 - 0.0
24/10:45am 19.6 19.8 16.8 84 1.7 NE 11 19 6 10 1019.7 - 0.0
24/10:30am 19.5 20.0 16.5 83 1.8 SSW 9 15 5 8 1020.4 - 0.0
24/10:15am 19.6 19.7 16.4 82 1.9 W 11 19 6 10 1020.4 - 0.0
24/10:00am 20.1 19.6 16.8 81 2.0 WNW 15 22 8 12 1020.2 - 0.0
24/09:45am 19.8 19.3 16.8 83 1.8 NW 15 20 8 11 1020.2 - 0.0
24/09:30am 19.5 19.4 16.9 85 1.6 NW 13 20 7 11 1020.2 - 0.0
24/09:15am 19.2 18.3 16.8 86 1.5 NW 17 26 9 14 1020.4 - 0.0
24/09:00am 19.0 18.8 16.8 87 1.3 NW 13 22 7 12 1020.2 - 0.0
24/08:45am 18.5 18.2 16.4 87 1.3 WNW 13 19 7 10 1020.2 - 0.0
24/08:30am 17.9 18.2 15.9 88 1.2 WNW 9 15 5 8 1020.2 - 0.0
24/08:15am 17.8 17.7 15.9 89 1.1 NW 11 17 6 9 1020.2 - 0.0
24/08:00am 17.6 17.5 15.9 90 1.0 NW 11 15 6 8 1020.2 - 0.0
24/07:45am 17.4 17.6 15.7 90 1.0 NNW 9 17 5 9 1020.2 - 0.0
24/07:30am 17.2 17.7 15.6 90 0.9 NE 7 22 4 12 1019.8 - 0.0
24/07:15am 16.8 14.7 15.2 90 0.9 ENE 20 28 11 15 1019.2 - 0.0
24/07:00am 16.6 15.4 15.1 91 0.9 SE 15 19 8 10 1020.4 - 0.0
24/06:45am 16.5 15.6 14.9 90 0.9 SE 13 19 7 10 1020.6 - 0.0
24/06:30am 16.4 15.1 14.8 90 0.9 SE 15 19 8 10 1020.3 - 0.0
24/06:15am 16.2 14.8 14.6 90 0.9 SE 15 17 8 9 1020.2 - 0.0
24/06:00am 16.2 16.4 14.6 90 0.9 ESE 7 13 4 7 1020.1 - 0.0
24/05:45am 16.5 17.3 14.8 90 1.0 N 4 6 2 3 1020.0 - 0.0
24/05:30am 16.4 16.2 14.7 90 1.0 ENE 9 17 5 9 1019.6 - 0.0
24/05:15am 16.4 17.2 14.7 90 1.0 W 4 7 2 4 1020.2 - 0.0
24/05:00am 16.5 16.3 14.7 89 1.0 W 9 15 5 8 1020.3 - 0.0
24/04:45am 16.6 17.0 14.8 89 1.0 SSW 6 11 3 6 1019.8 - 0.0
24/04:30am 16.7 17.2 15.0 90 1.0 E 6 9 3 5 1019.6 - 0.0
24/04:15am 16.7 17.0 15.1 90 0.9 N 7 13 4 7 1019.6 - 0.0
24/04:00am 16.8 16.1 15.3 91 0.9 W 13 26 7 14 1020.2 - 0.0
24/03:45am 16.6 13.7 15.2 91 0.8 WSW 24 35 13 19 1020.6 - 0.0
24/03:30am 16.8 14.0 15.3 91 0.9 WSW 24 37 13 20 1020.2 - 0.0
24/03:15am 16.9 17.9 15.3 90 0.9 W 4 13 2 7 1019.2 - 0.0
24/03:00am 17.1 18.2 15.5 90 0.9 S 4 9 2 5 1019.3 - 0.0
24/02:45am 17.2 17.3 15.6 90 0.9 E 9 15 5 8 1019.2 - 0.0
24/02:30am 17.4 16.8 15.7 90 1.0 ENE 13 20 7 11 1019.0 - 0.0
24/02:15am 17.5 17.0 15.9 90 0.9 E 13 22 7 12 1019.2 - 0.0
24/02:00am 17.5 15.9 16.0 91 0.9 SE 19 28 10 15 1020.3 - 0.0
24/01:45am 17.5 15.9 15.9 90 0.9 SSE 19 26 10 14 1020.9 - 0.0
24/01:30am 17.4 15.6 15.9 91 0.9 SSE 20 30 11 16 1021.1 - 0.0
24/01:15am 17.2 15.2 15.5 90 1.0 SSE 20 26 11 14 1021.2 - 0.0
24/01:00am 17.2 15.2 15.6 90 0.9 SSE 20 30 11 16 1021.2 - 0.0
24/12:45am 17.2 15.9 15.7 91 0.9 SE 17 22 9 12 1020.9 - 0.0
24/12:30am 17.0 15.5 15.4 90 0.9 SSE 17 24 9 13 1021.1 - 0.0
24/12:15am 16.9 15.8 15.2 90 1.0 SSE 15 19 8 10 1021.2 - 0.0
24/12:00am 16.9 16.1 15.1 89 1.1 SSE 13 19 7 10 1021.0 - 0.0
 
Date/Time
EDT
Temp
°C
App
Temp
°C
Dew
Point
Rel
Hum
%
Delta-T
°C
Wind Press
QNH
hPa
Press
MSL
hPa
Rain
since 9 am
mm
Dir
 
Spd
km/h
Gust
km/h
Spd
kts
Gust
kts
23/11:45pm 17.1 16.7 15.3 89 1.1 SSE 11 15 6 8 1020.8 - 0.0
23/11:30pm 17.1 17.1 15.3 89 1.1 SE 9 13 5 7 1020.8 - 0.0
23/11:15pm 17.2 16.9 15.4 89 1.1 SE 11 15 6 8 1020.8 - 0.0
23/11:00pm 17.2 16.9 15.4 89 1.1 SE 11 15 6 8 1020.8 - 0.0
23/10:45pm 17.2 17.2 15.3 88 1.1 SSE 9 15 5 8 1021.0 - 0.0
23/10:30pm 17.2 16.8 15.2 88 1.2 SSE 11 15 6 8 1020.9 - 0.0
23/10:15pm 17.5 17.6 15.4 87 1.2 SE 9 15 5 8 1020.5 - 0.0
23/10:00pm 17.5 16.4 15.4 87 1.2 SE 15 22 8 12 1020.2 - 0.0
23/09:45pm 17.6 16.5 15.3 86 1.4 SE 15 20 8 11 1020.2 - 0.0
23/09:30pm 17.8 17.0 15.2 85 1.5 SE 13 22 7 12 1020.1 - 0.0
23/09:15pm 18.0 16.5 15.3 84 1.6 SE 17 22 9 12 1019.9 - 0.0
23/09:00pm 17.9 16.0 15.2 84 1.6 SE 19 22 10 12 1019.6 - 0.0
23/08:45pm 18.0 17.6 15.1 83 1.7 SE 11 19 6 10 1019.6 - 0.0
23/08:30pm 17.8 17.6 14.7 82 1.8 SSE 9 13 5 7 1019.5 - 0.0
23/08:15pm 18.2 18.1 14.9 81 1.9 SSE 9 13 5 7 1019.4 - 0.0

Other Formats:

Comma delimited format used in spreadsheet applications
http://www.bom.gov.au/fwo/IDN60801/IDN60801.95757.axf

JavaScript Object Notation format (JSON) in row-major order
http://www.bom.gov.au/fwo/IDN60801/IDN60801.95757.json